<?xml version="1.0" encoding="UTF-8" standalone="no" ?>
<gpx xmlns="http://www.topografix.com/GPX/1/1" xmlns:xsi="http://www.w3.org/2001/XMLSchema-instance" xsi:schemaLocation="http://www.topografix.com/GPX/1/1 http://www.topografix.com/GPX/1/1/gpx.xsd" version="1.1" creator="VisuGPX - https://www.visugpx.com">
  <metadata>
    <name>2024-12-30  Randonnée TwoNav</name>
    <desc><![CDATA[2024-12-30_150409.trk]]></desc>
  </metadata>
  <trk>
    <name><![CDATA[2024-12-30  Randonnée TwoNav_1]]></name>
    <trkseg>
      <trkpt lat="50.17848" lon="4.22739">
        <ele>253.6</ele>
        <time>2024-12-30T14:04:09Z</time>
      </trkpt>
      <trkpt lat="50.17848" lon="4.22741">
        <ele>253.6</ele>
        <time>2024-12-30T14:04:10Z</time>
      </trkpt>
      <trkpt lat="50.17855" lon="4.2275">
        <ele>253.7</ele>
        <time>2024-12-30T14:04:18Z</time>
      </trkpt>
      <trkpt lat="50.17863" lon="4.2276">
        <ele>253.7</ele>
        <time>2024-12-30T14:04:23Z</time>
      </trkpt>
      <trkpt lat="50.17873" lon="4.22766">
        <ele>253.8</ele>
        <time>2024-12-30T14:04:31Z</time>
      </trkpt>
      <trkpt lat="50.17883" lon="4.22763">
        <ele>253.8</ele>
        <time>2024-12-30T14:04:37Z</time>
      </trkpt>
      <trkpt lat="50.17892" lon="4.22758">
        <ele>253.8</ele>
        <time>2024-12-30T14:04:42Z</time>
      </trkpt>
      <trkpt lat="50.1791" lon="4.22755">
        <ele>253.8</ele>
        <time>2024-12-30T14:04:48Z</time>
      </trkpt>
      <trkpt lat="50.17921" lon="4.22755">
        <ele>253.7</ele>
        <time>2024-12-30T14:04:51Z</time>
      </trkpt>
      <trkpt lat="50.1793" lon="4.22756">
        <ele>253.8</ele>
        <time>2024-12-30T14:04:58Z</time>
      </trkpt>
      <trkpt lat="50.17925" lon="4.2277">
        <ele>253.3</ele>
        <time>2024-12-30T14:05:16Z</time>
      </trkpt>
      <trkpt lat="50.17917" lon="4.22779">
        <ele>252.9</ele>
        <time>2024-12-30T14:05:25Z</time>
      </trkpt>
      <trkpt lat="50.1791" lon="4.22788">
        <ele>252.8</ele>
        <time>2024-12-30T14:05:34Z</time>
      </trkpt>
      <trkpt lat="50.17902" lon="4.22797">
        <ele>252.6</ele>
        <time>2024-12-30T14:05:43Z</time>
      </trkpt>
      <trkpt lat="50.17894" lon="4.22806">
        <ele>252.5</ele>
        <time>2024-12-30T14:05:51Z</time>
      </trkpt>
      <trkpt lat="50.17887" lon="4.22815">
        <ele>252.5</ele>
        <time>2024-12-30T14:05:59Z</time>
      </trkpt>
      <trkpt lat="50.17879" lon="4.22825">
        <ele>252.4</ele>
        <time>2024-12-30T14:06:07Z</time>
      </trkpt>
      <trkpt lat="50.17872" lon="4.22836">
        <ele>252.3</ele>
        <time>2024-12-30T14:06:15Z</time>
      </trkpt>
      <trkpt lat="50.17865" lon="4.22846">
        <ele>252.3</ele>
        <time>2024-12-30T14:06:23Z</time>
      </trkpt>
      <trkpt lat="50.17858" lon="4.22857">
        <ele>252.2</ele>
        <time>2024-12-30T14:06:31Z</time>
      </trkpt>
      <trkpt lat="50.1785" lon="4.22867">
        <ele>252.2</ele>
        <time>2024-12-30T14:06:39Z</time>
      </trkpt>
      <trkpt lat="50.17843" lon="4.22878">
        <ele>252.2</ele>
        <time>2024-12-30T14:06:47Z</time>
      </trkpt>
      <trkpt lat="50.17836" lon="4.22889">
        <ele>252.2</ele>
        <time>2024-12-30T14:06:55Z</time>
      </trkpt>
      <trkpt lat="50.17828" lon="4.22899">
        <ele>252.2</ele>
        <time>2024-12-30T14:07:03Z</time>
      </trkpt>
      <trkpt lat="50.17821" lon="4.22911">
        <ele>252.1</ele>
        <time>2024-12-30T14:07:11Z</time>
      </trkpt>
      <trkpt lat="50.17814" lon="4.22921">
        <ele>252.1</ele>
        <time>2024-12-30T14:07:19Z</time>
      </trkpt>
      <trkpt lat="50.17806" lon="4.22931">
        <ele>252</ele>
        <time>2024-12-30T14:07:27Z</time>
      </trkpt>
      <trkpt lat="50.17799" lon="4.22942">
        <ele>252</ele>
        <time>2024-12-30T14:07:35Z</time>
      </trkpt>
      <trkpt lat="50.17792" lon="4.22953">
        <ele>252</ele>
        <time>2024-12-30T14:07:43Z</time>
      </trkpt>
      <trkpt lat="50.17785" lon="4.22962">
        <ele>252</ele>
        <time>2024-12-30T14:07:50Z</time>
      </trkpt>
      <trkpt lat="50.17777" lon="4.2297">
        <ele>252.1</ele>
        <time>2024-12-30T14:07:58Z</time>
      </trkpt>
      <trkpt lat="50.17768" lon="4.22971">
        <ele>252.3</ele>
        <time>2024-12-30T14:08:05Z</time>
      </trkpt>
      <trkpt lat="50.17759" lon="4.22975">
        <ele>252.3</ele>
        <time>2024-12-30T14:08:12Z</time>
      </trkpt>
      <trkpt lat="50.17751" lon="4.22983">
        <ele>252.4</ele>
        <time>2024-12-30T14:08:19Z</time>
      </trkpt>
      <trkpt lat="50.17744" lon="4.22992">
        <ele>252.4</ele>
        <time>2024-12-30T14:08:26Z</time>
      </trkpt>
      <trkpt lat="50.17737" lon="4.23001">
        <ele>252.4</ele>
        <time>2024-12-30T14:08:33Z</time>
      </trkpt>
      <trkpt lat="50.1773" lon="4.23012">
        <ele>252.4</ele>
        <time>2024-12-30T14:08:41Z</time>
      </trkpt>
      <trkpt lat="50.17722" lon="4.23022">
        <ele>252.5</ele>
        <time>2024-12-30T14:08:49Z</time>
      </trkpt>
      <trkpt lat="50.17714" lon="4.23032">
        <ele>252.5</ele>
        <time>2024-12-30T14:08:57Z</time>
      </trkpt>
      <trkpt lat="50.17708" lon="4.23042">
        <ele>252.5</ele>
        <time>2024-12-30T14:09:05Z</time>
      </trkpt>
      <trkpt lat="50.177" lon="4.23053">
        <ele>252.5</ele>
        <time>2024-12-30T14:09:13Z</time>
      </trkpt>
      <trkpt lat="50.17693" lon="4.23062">
        <ele>252.5</ele>
        <time>2024-12-30T14:09:21Z</time>
      </trkpt>
      <trkpt lat="50.17686" lon="4.23072">
        <ele>252.5</ele>
        <time>2024-12-30T14:09:28Z</time>
      </trkpt>
      <trkpt lat="50.17679" lon="4.23081">
        <ele>252.6</ele>
        <time>2024-12-30T14:09:35Z</time>
      </trkpt>
      <trkpt lat="50.17671" lon="4.23091">
        <ele>252.6</ele>
        <time>2024-12-30T14:09:43Z</time>
      </trkpt>
      <trkpt lat="50.17664" lon="4.231">
        <ele>252.7</ele>
        <time>2024-12-30T14:09:50Z</time>
      </trkpt>
      <trkpt lat="50.17656" lon="4.23108">
        <ele>252.7</ele>
        <time>2024-12-30T14:09:57Z</time>
      </trkpt>
      <trkpt lat="50.17649" lon="4.23119">
        <ele>252.7</ele>
        <time>2024-12-30T14:10:04Z</time>
      </trkpt>
      <trkpt lat="50.17642" lon="4.23129">
        <ele>252.8</ele>
        <time>2024-12-30T14:10:12Z</time>
      </trkpt>
      <trkpt lat="50.17634" lon="4.23137">
        <ele>252.8</ele>
        <time>2024-12-30T14:10:20Z</time>
      </trkpt>
      <trkpt lat="50.17626" lon="4.23147">
        <ele>252.9</ele>
        <time>2024-12-30T14:10:28Z</time>
      </trkpt>
      <trkpt lat="50.17619" lon="4.23157">
        <ele>253</ele>
        <time>2024-12-30T14:10:36Z</time>
      </trkpt>
      <trkpt lat="50.17611" lon="4.23167">
        <ele>253.1</ele>
        <time>2024-12-30T14:10:44Z</time>
      </trkpt>
      <trkpt lat="50.17604" lon="4.23178">
        <ele>253.2</ele>
        <time>2024-12-30T14:10:53Z</time>
      </trkpt>
      <trkpt lat="50.17598" lon="4.23189">
        <ele>253.3</ele>
        <time>2024-12-30T14:11:02Z</time>
      </trkpt>
      <trkpt lat="50.17591" lon="4.232">
        <ele>253.3</ele>
        <time>2024-12-30T14:11:10Z</time>
      </trkpt>
      <trkpt lat="50.17583" lon="4.2321">
        <ele>253.4</ele>
        <time>2024-12-30T14:11:17Z</time>
      </trkpt>
      <trkpt lat="50.17576" lon="4.23219">
        <ele>253.4</ele>
        <time>2024-12-30T14:11:24Z</time>
      </trkpt>
      <trkpt lat="50.17568" lon="4.23228">
        <ele>253.5</ele>
        <time>2024-12-30T14:11:30Z</time>
      </trkpt>
      <trkpt lat="50.17561" lon="4.23238">
        <ele>253.6</ele>
        <time>2024-12-30T14:11:37Z</time>
      </trkpt>
      <trkpt lat="50.17553" lon="4.23248">
        <ele>253.6</ele>
        <time>2024-12-30T14:11:45Z</time>
      </trkpt>
      <trkpt lat="50.17546" lon="4.23257">
        <ele>253.7</ele>
        <time>2024-12-30T14:11:52Z</time>
      </trkpt>
      <trkpt lat="50.17539" lon="4.23266">
        <ele>253.7</ele>
        <time>2024-12-30T14:11:59Z</time>
      </trkpt>
      <trkpt lat="50.17531" lon="4.23277">
        <ele>253.8</ele>
        <time>2024-12-30T14:12:07Z</time>
      </trkpt>
      <trkpt lat="50.17524" lon="4.23286">
        <ele>253.9</ele>
        <time>2024-12-30T14:12:14Z</time>
      </trkpt>
      <trkpt lat="50.17518" lon="4.23296">
        <ele>254</ele>
        <time>2024-12-30T14:12:21Z</time>
      </trkpt>
      <trkpt lat="50.1751" lon="4.23307">
        <ele>254.1</ele>
        <time>2024-12-30T14:12:29Z</time>
      </trkpt>
      <trkpt lat="50.17502" lon="4.23318">
        <ele>254.3</ele>
        <time>2024-12-30T14:12:37Z</time>
      </trkpt>
      <trkpt lat="50.17495" lon="4.23328">
        <ele>254.5</ele>
        <time>2024-12-30T14:12:45Z</time>
      </trkpt>
      <trkpt lat="50.17487" lon="4.23338">
        <ele>254.6</ele>
        <time>2024-12-30T14:12:53Z</time>
      </trkpt>
      <trkpt lat="50.17479" lon="4.23347">
        <ele>254.8</ele>
        <time>2024-12-30T14:13:01Z</time>
      </trkpt>
      <trkpt lat="50.17471" lon="4.23358">
        <ele>255</ele>
        <time>2024-12-30T14:13:11Z</time>
      </trkpt>
      <trkpt lat="50.17464" lon="4.23367">
        <ele>255.2</ele>
        <time>2024-12-30T14:13:18Z</time>
      </trkpt>
      <trkpt lat="50.17457" lon="4.23378">
        <ele>255.4</ele>
        <time>2024-12-30T14:13:25Z</time>
      </trkpt>
      <trkpt lat="50.17449" lon="4.23387">
        <ele>255.6</ele>
        <time>2024-12-30T14:13:32Z</time>
      </trkpt>
      <trkpt lat="50.17442" lon="4.23397">
        <ele>255.7</ele>
        <time>2024-12-30T14:13:39Z</time>
      </trkpt>
      <trkpt lat="50.17434" lon="4.23406">
        <ele>255.9</ele>
        <time>2024-12-30T14:13:46Z</time>
      </trkpt>
      <trkpt lat="50.17427" lon="4.23416">
        <ele>256</ele>
        <time>2024-12-30T14:13:53Z</time>
      </trkpt>
      <trkpt lat="50.17419" lon="4.23426">
        <ele>256.2</ele>
        <time>2024-12-30T14:14:00Z</time>
      </trkpt>
      <trkpt lat="50.17411" lon="4.23436">
        <ele>256.3</ele>
        <time>2024-12-30T14:14:08Z</time>
      </trkpt>
      <trkpt lat="50.17404" lon="4.23446">
        <ele>256.4</ele>
        <time>2024-12-30T14:14:15Z</time>
      </trkpt>
      <trkpt lat="50.17397" lon="4.23457">
        <ele>256.4</ele>
        <time>2024-12-30T14:14:23Z</time>
      </trkpt>
      <trkpt lat="50.17389" lon="4.23466">
        <ele>256.6</ele>
        <time>2024-12-30T14:14:30Z</time>
      </trkpt>
      <trkpt lat="50.17381" lon="4.23475">
        <ele>256.7</ele>
        <time>2024-12-30T14:14:37Z</time>
      </trkpt>
      <trkpt lat="50.17374" lon="4.23484">
        <ele>256.9</ele>
        <time>2024-12-30T14:14:44Z</time>
      </trkpt>
      <trkpt lat="50.17367" lon="4.23494">
        <ele>257</ele>
        <time>2024-12-30T14:14:51Z</time>
      </trkpt>
      <trkpt lat="50.17361" lon="4.23506">
        <ele>257.2</ele>
        <time>2024-12-30T14:14:58Z</time>
      </trkpt>
      <trkpt lat="50.17353" lon="4.23514">
        <ele>257.3</ele>
        <time>2024-12-30T14:15:05Z</time>
      </trkpt>
      <trkpt lat="50.17347" lon="4.23525">
        <ele>257.4</ele>
        <time>2024-12-30T14:15:12Z</time>
      </trkpt>
      <trkpt lat="50.17341" lon="4.23535">
        <ele>257.6</ele>
        <time>2024-12-30T14:15:19Z</time>
      </trkpt>
      <trkpt lat="50.17334" lon="4.23545">
        <ele>257.8</ele>
        <time>2024-12-30T14:15:26Z</time>
      </trkpt>
      <trkpt lat="50.17327" lon="4.23555">
        <ele>258</ele>
        <time>2024-12-30T14:15:33Z</time>
      </trkpt>
      <trkpt lat="50.1732" lon="4.23563">
        <ele>258.2</ele>
        <time>2024-12-30T14:15:39Z</time>
      </trkpt>
      <trkpt lat="50.17312" lon="4.23573">
        <ele>258.3</ele>
        <time>2024-12-30T14:15:46Z</time>
      </trkpt>
      <trkpt lat="50.17305" lon="4.23582">
        <ele>258.4</ele>
        <time>2024-12-30T14:15:53Z</time>
      </trkpt>
      <trkpt lat="50.17297" lon="4.23592">
        <ele>258.4</ele>
        <time>2024-12-30T14:16:00Z</time>
      </trkpt>
      <trkpt lat="50.1729" lon="4.23602">
        <ele>258.5</ele>
        <time>2024-12-30T14:16:07Z</time>
      </trkpt>
      <trkpt lat="50.17283" lon="4.23611">
        <ele>258.6</ele>
        <time>2024-12-30T14:16:14Z</time>
      </trkpt>
      <trkpt lat="50.17276" lon="4.23621">
        <ele>258.6</ele>
        <time>2024-12-30T14:16:21Z</time>
      </trkpt>
      <trkpt lat="50.17268" lon="4.2363">
        <ele>258.8</ele>
        <time>2024-12-30T14:16:28Z</time>
      </trkpt>
      <trkpt lat="50.17261" lon="4.23639">
        <ele>258.9</ele>
        <time>2024-12-30T14:16:35Z</time>
      </trkpt>
      <trkpt lat="50.17255" lon="4.2365">
        <ele>259.1</ele>
        <time>2024-12-30T14:16:43Z</time>
      </trkpt>
      <trkpt lat="50.17248" lon="4.23661">
        <ele>259.3</ele>
        <time>2024-12-30T14:16:51Z</time>
      </trkpt>
      <trkpt lat="50.1724" lon="4.2367">
        <ele>259.3</ele>
        <time>2024-12-30T14:16:59Z</time>
      </trkpt>
      <trkpt lat="50.17233" lon="4.2368">
        <ele>259.4</ele>
        <time>2024-12-30T14:17:07Z</time>
      </trkpt>
      <trkpt lat="50.17225" lon="4.23689">
        <ele>259.2</ele>
        <time>2024-12-30T14:17:14Z</time>
      </trkpt>
      <trkpt lat="50.17217" lon="4.23698">
        <ele>258.9</ele>
        <time>2024-12-30T14:17:21Z</time>
      </trkpt>
      <trkpt lat="50.1721" lon="4.23708">
        <ele>258.7</ele>
        <time>2024-12-30T14:17:28Z</time>
      </trkpt>
      <trkpt lat="50.17203" lon="4.23717">
        <ele>258.5</ele>
        <time>2024-12-30T14:17:35Z</time>
      </trkpt>
      <trkpt lat="50.17195" lon="4.23726">
        <ele>258.4</ele>
        <time>2024-12-30T14:17:42Z</time>
      </trkpt>
      <trkpt lat="50.17187" lon="4.23735">
        <ele>258.3</ele>
        <time>2024-12-30T14:17:49Z</time>
      </trkpt>
      <trkpt lat="50.17179" lon="4.23745">
        <ele>258.3</ele>
        <time>2024-12-30T14:17:56Z</time>
      </trkpt>
      <trkpt lat="50.17172" lon="4.23755">
        <ele>258.2</ele>
        <time>2024-12-30T14:18:03Z</time>
      </trkpt>
      <trkpt lat="50.17165" lon="4.23765">
        <ele>258.1</ele>
        <time>2024-12-30T14:18:10Z</time>
      </trkpt>
      <trkpt lat="50.17158" lon="4.23775">
        <ele>258</ele>
        <time>2024-12-30T14:18:17Z</time>
      </trkpt>
      <trkpt lat="50.1715" lon="4.23785">
        <ele>258</ele>
        <time>2024-12-30T14:18:24Z</time>
      </trkpt>
      <trkpt lat="50.17143" lon="4.23795">
        <ele>258</ele>
        <time>2024-12-30T14:18:31Z</time>
      </trkpt>
      <trkpt lat="50.17136" lon="4.23805">
        <ele>258</ele>
        <time>2024-12-30T14:18:38Z</time>
      </trkpt>
      <trkpt lat="50.17129" lon="4.23815">
        <ele>258</ele>
        <time>2024-12-30T14:18:45Z</time>
      </trkpt>
      <trkpt lat="50.17122" lon="4.23825">
        <ele>258</ele>
        <time>2024-12-30T14:18:52Z</time>
      </trkpt>
      <trkpt lat="50.17115" lon="4.23835">
        <ele>258.1</ele>
        <time>2024-12-30T14:18:59Z</time>
      </trkpt>
      <trkpt lat="50.17108" lon="4.23845">
        <ele>258.1</ele>
        <time>2024-12-30T14:19:06Z</time>
      </trkpt>
      <trkpt lat="50.17101" lon="4.23855">
        <ele>258.1</ele>
        <time>2024-12-30T14:19:13Z</time>
      </trkpt>
      <trkpt lat="50.17094" lon="4.23865">
        <ele>258.1</ele>
        <time>2024-12-30T14:19:20Z</time>
      </trkpt>
      <trkpt lat="50.17086" lon="4.23874">
        <ele>258.1</ele>
        <time>2024-12-30T14:19:27Z</time>
      </trkpt>
      <trkpt lat="50.17079" lon="4.23882">
        <ele>258.1</ele>
        <time>2024-12-30T14:19:34Z</time>
      </trkpt>
      <trkpt lat="50.17071" lon="4.23892">
        <ele>258</ele>
        <time>2024-12-30T14:19:41Z</time>
      </trkpt>
      <trkpt lat="50.17063" lon="4.23902">
        <ele>258</ele>
        <time>2024-12-30T14:19:48Z</time>
      </trkpt>
      <trkpt lat="50.17056" lon="4.23912">
        <ele>258</ele>
        <time>2024-12-30T14:19:55Z</time>
      </trkpt>
      <trkpt lat="50.1705" lon="4.23922">
        <ele>258</ele>
        <time>2024-12-30T14:20:02Z</time>
      </trkpt>
      <trkpt lat="50.17042" lon="4.23931">
        <ele>258</ele>
        <time>2024-12-30T14:20:09Z</time>
      </trkpt>
      <trkpt lat="50.17034" lon="4.23941">
        <ele>258.1</ele>
        <time>2024-12-30T14:20:16Z</time>
      </trkpt>
      <trkpt lat="50.17027" lon="4.2395">
        <ele>258.1</ele>
        <time>2024-12-30T14:20:23Z</time>
      </trkpt>
      <trkpt lat="50.1702" lon="4.23959">
        <ele>258.1</ele>
        <time>2024-12-30T14:20:30Z</time>
      </trkpt>
      <trkpt lat="50.17012" lon="4.23969">
        <ele>258.1</ele>
        <time>2024-12-30T14:20:37Z</time>
      </trkpt>
      <trkpt lat="50.17005" lon="4.23978">
        <ele>258</ele>
        <time>2024-12-30T14:20:44Z</time>
      </trkpt>
      <trkpt lat="50.17002" lon="4.23983">
        <ele>258</ele>
        <time>2024-12-30T14:20:50Z</time>
      </trkpt>
      <trkpt lat="50.17002" lon="4.23983">
        <ele>258</ele>
        <time>2024-12-30T14:20:51Z</time>
      </trkpt>
      <trkpt lat="50.16999" lon="4.23986">
        <ele>258</ele>
        <time>2024-12-30T14:21:02Z</time>
      </trkpt>
      <trkpt lat="50.16998" lon="4.23988">
        <ele>258</ele>
        <time>2024-12-30T14:21:03Z</time>
      </trkpt>
      <trkpt lat="50.16997" lon="4.23989">
        <ele>258</ele>
        <time>2024-12-30T14:21:04Z</time>
      </trkpt>
      <trkpt lat="50.1699" lon="4.23998">
        <ele>258</ele>
        <time>2024-12-30T14:21:11Z</time>
      </trkpt>
      <trkpt lat="50.16982" lon="4.24007">
        <ele>258</ele>
        <time>2024-12-30T14:21:18Z</time>
      </trkpt>
      <trkpt lat="50.16975" lon="4.24018">
        <ele>258</ele>
        <time>2024-12-30T14:21:26Z</time>
      </trkpt>
      <trkpt lat="50.16967" lon="4.24027">
        <ele>257.9</ele>
        <time>2024-12-30T14:21:34Z</time>
      </trkpt>
      <trkpt lat="50.16959" lon="4.24036">
        <ele>257.9</ele>
        <time>2024-12-30T14:21:41Z</time>
      </trkpt>
      <trkpt lat="50.16952" lon="4.24046">
        <ele>257.9</ele>
        <time>2024-12-30T14:21:48Z</time>
      </trkpt>
      <trkpt lat="50.16944" lon="4.24055">
        <ele>257.9</ele>
        <time>2024-12-30T14:21:56Z</time>
      </trkpt>
      <trkpt lat="50.16936" lon="4.24065">
        <ele>257.9</ele>
        <time>2024-12-30T14:22:04Z</time>
      </trkpt>
      <trkpt lat="50.16929" lon="4.24074">
        <ele>257.9</ele>
        <time>2024-12-30T14:22:11Z</time>
      </trkpt>
      <trkpt lat="50.16923" lon="4.24085">
        <ele>258</ele>
        <time>2024-12-30T14:22:18Z</time>
      </trkpt>
      <trkpt lat="50.16916" lon="4.24094">
        <ele>258.1</ele>
        <time>2024-12-30T14:22:25Z</time>
      </trkpt>
      <trkpt lat="50.16909" lon="4.24104">
        <ele>258.1</ele>
        <time>2024-12-30T14:22:32Z</time>
      </trkpt>
      <trkpt lat="50.16903" lon="4.24115">
        <ele>258.2</ele>
        <time>2024-12-30T14:22:39Z</time>
      </trkpt>
      <trkpt lat="50.16896" lon="4.24124">
        <ele>258.2</ele>
        <time>2024-12-30T14:22:46Z</time>
      </trkpt>
      <trkpt lat="50.16889" lon="4.24133">
        <ele>258.2</ele>
        <time>2024-12-30T14:22:53Z</time>
      </trkpt>
      <trkpt lat="50.16882" lon="4.24143">
        <ele>258.3</ele>
        <time>2024-12-30T14:23:00Z</time>
      </trkpt>
      <trkpt lat="50.16875" lon="4.24153">
        <ele>258.3</ele>
        <time>2024-12-30T14:23:07Z</time>
      </trkpt>
      <trkpt lat="50.16868" lon="4.24162">
        <ele>258.4</ele>
        <time>2024-12-30T14:23:14Z</time>
      </trkpt>
      <trkpt lat="50.16861" lon="4.24171">
        <ele>258.5</ele>
        <time>2024-12-30T14:23:21Z</time>
      </trkpt>
      <trkpt lat="50.16853" lon="4.2418">
        <ele>258.6</ele>
        <time>2024-12-30T14:23:28Z</time>
      </trkpt>
      <trkpt lat="50.16846" lon="4.2419">
        <ele>258.6</ele>
        <time>2024-12-30T14:23:35Z</time>
      </trkpt>
      <trkpt lat="50.16839" lon="4.242">
        <ele>258.7</ele>
        <time>2024-12-30T14:23:42Z</time>
      </trkpt>
      <trkpt lat="50.16832" lon="4.24209">
        <ele>258.7</ele>
        <time>2024-12-30T14:23:49Z</time>
      </trkpt>
      <trkpt lat="50.16826" lon="4.24219">
        <ele>258.7</ele>
        <time>2024-12-30T14:23:56Z</time>
      </trkpt>
      <trkpt lat="50.16818" lon="4.2423">
        <ele>258.7</ele>
        <time>2024-12-30T14:24:04Z</time>
      </trkpt>
      <trkpt lat="50.1681" lon="4.24239">
        <ele>258.8</ele>
        <time>2024-12-30T14:24:11Z</time>
      </trkpt>
      <trkpt lat="50.16803" lon="4.24248">
        <ele>258.8</ele>
        <time>2024-12-30T14:24:18Z</time>
      </trkpt>
      <trkpt lat="50.16796" lon="4.24259">
        <ele>258.9</ele>
        <time>2024-12-30T14:24:26Z</time>
      </trkpt>
      <trkpt lat="50.16788" lon="4.24268">
        <ele>258.9</ele>
        <time>2024-12-30T14:24:33Z</time>
      </trkpt>
      <trkpt lat="50.16782" lon="4.24279">
        <ele>259</ele>
        <time>2024-12-30T14:24:40Z</time>
      </trkpt>
      <trkpt lat="50.16774" lon="4.24289">
        <ele>259</ele>
        <time>2024-12-30T14:24:47Z</time>
      </trkpt>
      <trkpt lat="50.16767" lon="4.24299">
        <ele>259.1</ele>
        <time>2024-12-30T14:24:54Z</time>
      </trkpt>
      <trkpt lat="50.1676" lon="4.24309">
        <ele>259.1</ele>
        <time>2024-12-30T14:25:01Z</time>
      </trkpt>
      <trkpt lat="50.16753" lon="4.24318">
        <ele>259.1</ele>
        <time>2024-12-30T14:25:08Z</time>
      </trkpt>
      <trkpt lat="50.16745" lon="4.24328">
        <ele>259.2</ele>
        <time>2024-12-30T14:25:15Z</time>
      </trkpt>
      <trkpt lat="50.16738" lon="4.24338">
        <ele>259.3</ele>
        <time>2024-12-30T14:25:22Z</time>
      </trkpt>
      <trkpt lat="50.16731" lon="4.24347">
        <ele>259.4</ele>
        <time>2024-12-30T14:25:29Z</time>
      </trkpt>
      <trkpt lat="50.16724" lon="4.24357">
        <ele>259.5</ele>
        <time>2024-12-30T14:25:36Z</time>
      </trkpt>
      <trkpt lat="50.16717" lon="4.24366">
        <ele>259.7</ele>
        <time>2024-12-30T14:25:43Z</time>
      </trkpt>
      <trkpt lat="50.16709" lon="4.24375">
        <ele>259.8</ele>
        <time>2024-12-30T14:25:50Z</time>
      </trkpt>
      <trkpt lat="50.16702" lon="4.24383">
        <ele>260</ele>
        <time>2024-12-30T14:25:57Z</time>
      </trkpt>
      <trkpt lat="50.16695" lon="4.24392">
        <ele>260.3</ele>
        <time>2024-12-30T14:26:04Z</time>
      </trkpt>
      <trkpt lat="50.16687" lon="4.24401">
        <ele>260.5</ele>
        <time>2024-12-30T14:26:11Z</time>
      </trkpt>
      <trkpt lat="50.1668" lon="4.24411">
        <ele>260.6</ele>
        <time>2024-12-30T14:26:18Z</time>
      </trkpt>
      <trkpt lat="50.16673" lon="4.24419">
        <ele>260.5</ele>
        <time>2024-12-30T14:26:25Z</time>
      </trkpt>
      <trkpt lat="50.16666" lon="4.24429">
        <ele>260.4</ele>
        <time>2024-12-30T14:26:32Z</time>
      </trkpt>
      <trkpt lat="50.1666" lon="4.24439">
        <ele>260.4</ele>
        <time>2024-12-30T14:26:39Z</time>
      </trkpt>
      <trkpt lat="50.16653" lon="4.24448">
        <ele>260.5</ele>
        <time>2024-12-30T14:26:46Z</time>
      </trkpt>
      <trkpt lat="50.16646" lon="4.24459">
        <ele>260.6</ele>
        <time>2024-12-30T14:26:54Z</time>
      </trkpt>
      <trkpt lat="50.16638" lon="4.24467">
        <ele>260.6</ele>
        <time>2024-12-30T14:27:02Z</time>
      </trkpt>
      <trkpt lat="50.16632" lon="4.24478">
        <ele>260.4</ele>
        <time>2024-12-30T14:27:09Z</time>
      </trkpt>
      <trkpt lat="50.16625" lon="4.24487">
        <ele>260.2</ele>
        <time>2024-12-30T14:27:16Z</time>
      </trkpt>
      <trkpt lat="50.16618" lon="4.24497">
        <ele>259.9</ele>
        <time>2024-12-30T14:27:23Z</time>
      </trkpt>
      <trkpt lat="50.1661" lon="4.24505">
        <ele>259.8</ele>
        <time>2024-12-30T14:27:30Z</time>
      </trkpt>
      <trkpt lat="50.16603" lon="4.24514">
        <ele>259.7</ele>
        <time>2024-12-30T14:27:37Z</time>
      </trkpt>
      <trkpt lat="50.16596" lon="4.24525">
        <ele>259.6</ele>
        <time>2024-12-30T14:27:44Z</time>
      </trkpt>
      <trkpt lat="50.16588" lon="4.24534">
        <ele>259.6</ele>
        <time>2024-12-30T14:27:51Z</time>
      </trkpt>
      <trkpt lat="50.16581" lon="4.24544">
        <ele>259.5</ele>
        <time>2024-12-30T14:27:58Z</time>
      </trkpt>
      <trkpt lat="50.16573" lon="4.24554">
        <ele>259.6</ele>
        <time>2024-12-30T14:28:05Z</time>
      </trkpt>
      <trkpt lat="50.16566" lon="4.24564">
        <ele>259.6</ele>
        <time>2024-12-30T14:28:12Z</time>
      </trkpt>
      <trkpt lat="50.16558" lon="4.24574">
        <ele>259.6</ele>
        <time>2024-12-30T14:28:20Z</time>
      </trkpt>
      <trkpt lat="50.1655" lon="4.24583">
        <ele>259.7</ele>
        <time>2024-12-30T14:28:28Z</time>
      </trkpt>
      <trkpt lat="50.16542" lon="4.24592">
        <ele>259.8</ele>
        <time>2024-12-30T14:28:35Z</time>
      </trkpt>
      <trkpt lat="50.16535" lon="4.24602">
        <ele>259.8</ele>
        <time>2024-12-30T14:28:42Z</time>
      </trkpt>
      <trkpt lat="50.16527" lon="4.24612">
        <ele>259.8</ele>
        <time>2024-12-30T14:28:49Z</time>
      </trkpt>
      <trkpt lat="50.1652" lon="4.24621">
        <ele>259.9</ele>
        <time>2024-12-30T14:28:56Z</time>
      </trkpt>
      <trkpt lat="50.16512" lon="4.24631">
        <ele>259.9</ele>
        <time>2024-12-30T14:29:03Z</time>
      </trkpt>
      <trkpt lat="50.16506" lon="4.24642">
        <ele>259.9</ele>
        <time>2024-12-30T14:29:10Z</time>
      </trkpt>
      <trkpt lat="50.16498" lon="4.2465">
        <ele>260</ele>
        <time>2024-12-30T14:29:17Z</time>
      </trkpt>
      <trkpt lat="50.1649" lon="4.2466">
        <ele>260</ele>
        <time>2024-12-30T14:29:24Z</time>
      </trkpt>
      <trkpt lat="50.16483" lon="4.2467">
        <ele>260.1</ele>
        <time>2024-12-30T14:29:31Z</time>
      </trkpt>
      <trkpt lat="50.16475" lon="4.2468">
        <ele>260.1</ele>
        <time>2024-12-30T14:29:39Z</time>
      </trkpt>
      <trkpt lat="50.16468" lon="4.2469">
        <ele>260.2</ele>
        <time>2024-12-30T14:29:46Z</time>
      </trkpt>
      <trkpt lat="50.16461" lon="4.247">
        <ele>260.2</ele>
        <time>2024-12-30T14:29:53Z</time>
      </trkpt>
      <trkpt lat="50.16454" lon="4.24711">
        <ele>260.3</ele>
        <time>2024-12-30T14:30:00Z</time>
      </trkpt>
      <trkpt lat="50.16447" lon="4.24719">
        <ele>260.3</ele>
        <time>2024-12-30T14:30:07Z</time>
      </trkpt>
      <trkpt lat="50.1644" lon="4.2473">
        <ele>260.4</ele>
        <time>2024-12-30T14:30:14Z</time>
      </trkpt>
      <trkpt lat="50.16432" lon="4.24739">
        <ele>260.4</ele>
        <time>2024-12-30T14:30:21Z</time>
      </trkpt>
      <trkpt lat="50.16425" lon="4.24748">
        <ele>260.5</ele>
        <time>2024-12-30T14:30:28Z</time>
      </trkpt>
      <trkpt lat="50.16418" lon="4.24758">
        <ele>260.5</ele>
        <time>2024-12-30T14:30:35Z</time>
      </trkpt>
      <trkpt lat="50.16411" lon="4.24768">
        <ele>260.5</ele>
        <time>2024-12-30T14:30:42Z</time>
      </trkpt>
      <trkpt lat="50.16403" lon="4.24778">
        <ele>260.6</ele>
        <time>2024-12-30T14:30:49Z</time>
      </trkpt>
      <trkpt lat="50.16396" lon="4.24787">
        <ele>260.7</ele>
        <time>2024-12-30T14:30:56Z</time>
      </trkpt>
      <trkpt lat="50.16388" lon="4.24797">
        <ele>260.8</ele>
        <time>2024-12-30T14:31:03Z</time>
      </trkpt>
      <trkpt lat="50.16381" lon="4.24808">
        <ele>260.8</ele>
        <time>2024-12-30T14:31:10Z</time>
      </trkpt>
      <trkpt lat="50.16374" lon="4.24817">
        <ele>260.9</ele>
        <time>2024-12-30T14:31:17Z</time>
      </trkpt>
      <trkpt lat="50.16367" lon="4.24827">
        <ele>260.9</ele>
        <time>2024-12-30T14:31:24Z</time>
      </trkpt>
      <trkpt lat="50.1636" lon="4.24837">
        <ele>261</ele>
        <time>2024-12-30T14:31:31Z</time>
      </trkpt>
      <trkpt lat="50.16353" lon="4.24847">
        <ele>261.1</ele>
        <time>2024-12-30T14:31:38Z</time>
      </trkpt>
      <trkpt lat="50.16345" lon="4.24857">
        <ele>261.1</ele>
        <time>2024-12-30T14:31:45Z</time>
      </trkpt>
      <trkpt lat="50.16337" lon="4.24867">
        <ele>261.2</ele>
        <time>2024-12-30T14:31:53Z</time>
      </trkpt>
      <trkpt lat="50.16329" lon="4.24876">
        <ele>261.2</ele>
        <time>2024-12-30T14:32:00Z</time>
      </trkpt>
      <trkpt lat="50.16321" lon="4.24884">
        <ele>261.3</ele>
        <time>2024-12-30T14:32:07Z</time>
      </trkpt>
      <trkpt lat="50.16315" lon="4.24895">
        <ele>261.3</ele>
        <time>2024-12-30T14:32:14Z</time>
      </trkpt>
      <trkpt lat="50.16309" lon="4.24906">
        <ele>261.4</ele>
        <time>2024-12-30T14:32:21Z</time>
      </trkpt>
      <trkpt lat="50.16301" lon="4.24915">
        <ele>261.5</ele>
        <time>2024-12-30T14:32:28Z</time>
      </trkpt>
      <trkpt lat="50.16294" lon="4.24924">
        <ele>261.5</ele>
        <time>2024-12-30T14:32:35Z</time>
      </trkpt>
      <trkpt lat="50.16287" lon="4.24934">
        <ele>261.5</ele>
        <time>2024-12-30T14:32:42Z</time>
      </trkpt>
      <trkpt lat="50.1628" lon="4.24944">
        <ele>261.5</ele>
        <time>2024-12-30T14:32:49Z</time>
      </trkpt>
      <trkpt lat="50.16273" lon="4.24954">
        <ele>261.5</ele>
        <time>2024-12-30T14:32:56Z</time>
      </trkpt>
      <trkpt lat="50.16265" lon="4.24964">
        <ele>261.5</ele>
        <time>2024-12-30T14:33:04Z</time>
      </trkpt>
      <trkpt lat="50.16257" lon="4.24974">
        <ele>261.5</ele>
        <time>2024-12-30T14:33:11Z</time>
      </trkpt>
      <trkpt lat="50.1625" lon="4.24983">
        <ele>261.5</ele>
        <time>2024-12-30T14:33:17Z</time>
      </trkpt>
      <trkpt lat="50.16243" lon="4.24992">
        <ele>261.5</ele>
        <time>2024-12-30T14:33:24Z</time>
      </trkpt>
      <trkpt lat="50.16235" lon="4.25001">
        <ele>261.6</ele>
        <time>2024-12-30T14:33:31Z</time>
      </trkpt>
      <trkpt lat="50.16228" lon="4.25011">
        <ele>261.7</ele>
        <time>2024-12-30T14:33:38Z</time>
      </trkpt>
      <trkpt lat="50.16221" lon="4.25021">
        <ele>261.7</ele>
        <time>2024-12-30T14:33:45Z</time>
      </trkpt>
      <trkpt lat="50.16215" lon="4.25032">
        <ele>261.8</ele>
        <time>2024-12-30T14:33:52Z</time>
      </trkpt>
      <trkpt lat="50.16207" lon="4.25041">
        <ele>261.8</ele>
        <time>2024-12-30T14:33:59Z</time>
      </trkpt>
      <trkpt lat="50.162" lon="4.25052">
        <ele>261.7</ele>
        <time>2024-12-30T14:34:06Z</time>
      </trkpt>
      <trkpt lat="50.16193" lon="4.25061">
        <ele>261.7</ele>
        <time>2024-12-30T14:34:12Z</time>
      </trkpt>
      <trkpt lat="50.16185" lon="4.25072">
        <ele>261.7</ele>
        <time>2024-12-30T14:34:19Z</time>
      </trkpt>
      <trkpt lat="50.16178" lon="4.25082">
        <ele>261.6</ele>
        <time>2024-12-30T14:34:26Z</time>
      </trkpt>
      <trkpt lat="50.1617" lon="4.25091">
        <ele>261.5</ele>
        <time>2024-12-30T14:34:33Z</time>
      </trkpt>
      <trkpt lat="50.16162" lon="4.25101">
        <ele>261.4</ele>
        <time>2024-12-30T14:34:40Z</time>
      </trkpt>
      <trkpt lat="50.16155" lon="4.25111">
        <ele>261.3</ele>
        <time>2024-12-30T14:34:47Z</time>
      </trkpt>
      <trkpt lat="50.16147" lon="4.2512">
        <ele>261.2</ele>
        <time>2024-12-30T14:34:54Z</time>
      </trkpt>
      <trkpt lat="50.1614" lon="4.2513">
        <ele>261</ele>
        <time>2024-12-30T14:35:01Z</time>
      </trkpt>
      <trkpt lat="50.16132" lon="4.25139">
        <ele>260.9</ele>
        <time>2024-12-30T14:35:08Z</time>
      </trkpt>
      <trkpt lat="50.16124" lon="4.25149">
        <ele>260.7</ele>
        <time>2024-12-30T14:35:15Z</time>
      </trkpt>
      <trkpt lat="50.16117" lon="4.25158">
        <ele>260.6</ele>
        <time>2024-12-30T14:35:22Z</time>
      </trkpt>
      <trkpt lat="50.1611" lon="4.25168">
        <ele>260.4</ele>
        <time>2024-12-30T14:35:29Z</time>
      </trkpt>
      <trkpt lat="50.16103" lon="4.25179">
        <ele>260.3</ele>
        <time>2024-12-30T14:35:37Z</time>
      </trkpt>
      <trkpt lat="50.16096" lon="4.25188">
        <ele>260.2</ele>
        <time>2024-12-30T14:35:44Z</time>
      </trkpt>
      <trkpt lat="50.16089" lon="4.252">
        <ele>260</ele>
        <time>2024-12-30T14:35:52Z</time>
      </trkpt>
      <trkpt lat="50.16082" lon="4.2521">
        <ele>259.9</ele>
        <time>2024-12-30T14:35:59Z</time>
      </trkpt>
      <trkpt lat="50.16074" lon="4.2522">
        <ele>259.7</ele>
        <time>2024-12-30T14:36:06Z</time>
      </trkpt>
      <trkpt lat="50.16067" lon="4.2523">
        <ele>259.6</ele>
        <time>2024-12-30T14:36:13Z</time>
      </trkpt>
      <trkpt lat="50.1606" lon="4.25239">
        <ele>259.4</ele>
        <time>2024-12-30T14:36:20Z</time>
      </trkpt>
      <trkpt lat="50.16052" lon="4.25248">
        <ele>259.3</ele>
        <time>2024-12-30T14:36:27Z</time>
      </trkpt>
      <trkpt lat="50.16045" lon="4.25257">
        <ele>259.1</ele>
        <time>2024-12-30T14:36:34Z</time>
      </trkpt>
      <trkpt lat="50.16037" lon="4.25266">
        <ele>258.9</ele>
        <time>2024-12-30T14:36:41Z</time>
      </trkpt>
      <trkpt lat="50.1603" lon="4.25275">
        <ele>258.8</ele>
        <time>2024-12-30T14:36:47Z</time>
      </trkpt>
      <trkpt lat="50.16023" lon="4.25286">
        <ele>258.6</ele>
        <time>2024-12-30T14:36:54Z</time>
      </trkpt>
      <trkpt lat="50.16016" lon="4.25296">
        <ele>258.5</ele>
        <time>2024-12-30T14:37:01Z</time>
      </trkpt>
      <trkpt lat="50.16009" lon="4.25305">
        <ele>258.3</ele>
        <time>2024-12-30T14:37:10Z</time>
      </trkpt>
      <trkpt lat="50.16001" lon="4.25314">
        <ele>258.2</ele>
        <time>2024-12-30T14:37:16Z</time>
      </trkpt>
      <trkpt lat="50.15994" lon="4.25322">
        <ele>258</ele>
        <time>2024-12-30T14:37:22Z</time>
      </trkpt>
      <trkpt lat="50.15986" lon="4.25332">
        <ele>257.9</ele>
        <time>2024-12-30T14:37:29Z</time>
      </trkpt>
      <trkpt lat="50.15979" lon="4.25342">
        <ele>257.8</ele>
        <time>2024-12-30T14:37:36Z</time>
      </trkpt>
      <trkpt lat="50.15972" lon="4.25352">
        <ele>257.7</ele>
        <time>2024-12-30T14:37:43Z</time>
      </trkpt>
      <trkpt lat="50.15964" lon="4.25362">
        <ele>257.6</ele>
        <time>2024-12-30T14:37:50Z</time>
      </trkpt>
      <trkpt lat="50.15957" lon="4.2537">
        <ele>257.6</ele>
        <time>2024-12-30T14:37:57Z</time>
      </trkpt>
      <trkpt lat="50.15949" lon="4.2538">
        <ele>257.5</ele>
        <time>2024-12-30T14:38:04Z</time>
      </trkpt>
      <trkpt lat="50.15941" lon="4.2539">
        <ele>257.4</ele>
        <time>2024-12-30T14:38:11Z</time>
      </trkpt>
      <trkpt lat="50.15934" lon="4.254">
        <ele>257.4</ele>
        <time>2024-12-30T14:38:18Z</time>
      </trkpt>
      <trkpt lat="50.15926" lon="4.2541">
        <ele>257.3</ele>
        <time>2024-12-30T14:38:25Z</time>
      </trkpt>
      <trkpt lat="50.15919" lon="4.2542">
        <ele>257.2</ele>
        <time>2024-12-30T14:38:32Z</time>
      </trkpt>
      <trkpt lat="50.15913" lon="4.25429">
        <ele>257.2</ele>
        <time>2024-12-30T14:38:39Z</time>
      </trkpt>
      <trkpt lat="50.15914" lon="4.25433">
        <ele>257.1</ele>
        <time>2024-12-30T14:38:46Z</time>
      </trkpt>
      <trkpt lat="50.15914" lon="4.25433">
        <ele>257.1</ele>
        <time>2024-12-30T14:38:47Z</time>
      </trkpt>
      <trkpt lat="50.15914" lon="4.25433">
        <ele>257.1</ele>
        <time>2024-12-30T14:39:02Z</time>
      </trkpt>
      <trkpt lat="50.15914" lon="4.25434">
        <ele>257.1</ele>
        <time>2024-12-30T14:39:03Z</time>
      </trkpt>
      <trkpt lat="50.15914" lon="4.25434">
        <ele>257.1</ele>
        <time>2024-12-30T14:39:04Z</time>
      </trkpt>
      <trkpt lat="50.15915" lon="4.25435">
        <ele>257.1</ele>
        <time>2024-12-30T14:39:15Z</time>
      </trkpt>
      <trkpt lat="50.15915" lon="4.25435">
        <ele>257.1</ele>
        <time>2024-12-30T14:39:16Z</time>
      </trkpt>
      <trkpt lat="50.15914" lon="4.25435">
        <ele>257.1</ele>
        <time>2024-12-30T14:39:23Z</time>
      </trkpt>
      <trkpt lat="50.15914" lon="4.25435">
        <ele>257.1</ele>
        <time>2024-12-30T14:39:24Z</time>
      </trkpt>
      <trkpt lat="50.15914" lon="4.25436">
        <ele>257.1</ele>
        <time>2024-12-30T14:39:35Z</time>
      </trkpt>
      <trkpt lat="50.15914" lon="4.25436">
        <ele>257.1</ele>
        <time>2024-12-30T14:39:36Z</time>
      </trkpt>
      <trkpt lat="50.15915" lon="4.25437">
        <ele>257.1</ele>
        <time>2024-12-30T14:40:33Z</time>
      </trkpt>
      <trkpt lat="50.15916" lon="4.25436">
        <ele>257.1</ele>
        <time>2024-12-30T14:40:34Z</time>
      </trkpt>
      <trkpt lat="50.15924" lon="4.2543">
        <ele>257</ele>
        <time>2024-12-30T14:40:41Z</time>
      </trkpt>
      <trkpt lat="50.15933" lon="4.25421">
        <ele>256.9</ele>
        <time>2024-12-30T14:40:49Z</time>
      </trkpt>
      <trkpt lat="50.15941" lon="4.25414">
        <ele>257.1</ele>
        <time>2024-12-30T14:40:57Z</time>
      </trkpt>
      <trkpt lat="50.15949" lon="4.25407">
        <ele>257.2</ele>
        <time>2024-12-30T14:41:04Z</time>
      </trkpt>
      <trkpt lat="50.15957" lon="4.25397">
        <ele>257.3</ele>
        <time>2024-12-30T14:41:10Z</time>
      </trkpt>
      <trkpt lat="50.15963" lon="4.25388">
        <ele>257.4</ele>
        <time>2024-12-30T14:41:17Z</time>
      </trkpt>
      <trkpt lat="50.15971" lon="4.25376">
        <ele>257.6</ele>
        <time>2024-12-30T14:41:25Z</time>
      </trkpt>
      <trkpt lat="50.15978" lon="4.25366">
        <ele>257.7</ele>
        <time>2024-12-30T14:41:31Z</time>
      </trkpt>
      <trkpt lat="50.15985" lon="4.25357">
        <ele>257.8</ele>
        <time>2024-12-30T14:41:39Z</time>
      </trkpt>
      <trkpt lat="50.15991" lon="4.25346">
        <ele>257.8</ele>
        <time>2024-12-30T14:41:46Z</time>
      </trkpt>
      <trkpt lat="50.15998" lon="4.25335">
        <ele>258</ele>
        <time>2024-12-30T14:41:54Z</time>
      </trkpt>
      <trkpt lat="50.16005" lon="4.25324">
        <ele>258.1</ele>
        <time>2024-12-30T14:42:02Z</time>
      </trkpt>
      <trkpt lat="50.16012" lon="4.25313">
        <ele>258.3</ele>
        <time>2024-12-30T14:42:10Z</time>
      </trkpt>
      <trkpt lat="50.16019" lon="4.25304">
        <ele>258.5</ele>
        <time>2024-12-30T14:42:17Z</time>
      </trkpt>
      <trkpt lat="50.16027" lon="4.25296">
        <ele>258.6</ele>
        <time>2024-12-30T14:42:24Z</time>
      </trkpt>
      <trkpt lat="50.16034" lon="4.25287">
        <ele>258.7</ele>
        <time>2024-12-30T14:42:31Z</time>
      </trkpt>
      <trkpt lat="50.16042" lon="4.25277">
        <ele>258.9</ele>
        <time>2024-12-30T14:42:39Z</time>
      </trkpt>
      <trkpt lat="50.16049" lon="4.25267">
        <ele>259.1</ele>
        <time>2024-12-30T14:42:47Z</time>
      </trkpt>
      <trkpt lat="50.16056" lon="4.25257">
        <ele>259.3</ele>
        <time>2024-12-30T14:42:54Z</time>
      </trkpt>
      <trkpt lat="50.16064" lon="4.25248">
        <ele>259.4</ele>
        <time>2024-12-30T14:43:01Z</time>
      </trkpt>
      <trkpt lat="50.16071" lon="4.25239">
        <ele>259.6</ele>
        <time>2024-12-30T14:43:08Z</time>
      </trkpt>
      <trkpt lat="50.16078" lon="4.2523">
        <ele>259.7</ele>
        <time>2024-12-30T14:43:15Z</time>
      </trkpt>
      <trkpt lat="50.16085" lon="4.2522">
        <ele>259.9</ele>
        <time>2024-12-30T14:43:22Z</time>
      </trkpt>
      <trkpt lat="50.16092" lon="4.25209">
        <ele>260</ele>
        <time>2024-12-30T14:43:30Z</time>
      </trkpt>
      <trkpt lat="50.161" lon="4.252">
        <ele>260.1</ele>
        <time>2024-12-30T14:43:37Z</time>
      </trkpt>
      <trkpt lat="50.16107" lon="4.25189">
        <ele>260.3</ele>
        <time>2024-12-30T14:43:44Z</time>
      </trkpt>
      <trkpt lat="50.16115" lon="4.2518">
        <ele>260.4</ele>
        <time>2024-12-30T14:43:51Z</time>
      </trkpt>
      <trkpt lat="50.16122" lon="4.25169">
        <ele>260.6</ele>
        <time>2024-12-30T14:43:59Z</time>
      </trkpt>
      <trkpt lat="50.16128" lon="4.25158">
        <ele>260.7</ele>
        <time>2024-12-30T14:44:06Z</time>
      </trkpt>
      <trkpt lat="50.16136" lon="4.25149">
        <ele>260.9</ele>
        <time>2024-12-30T14:44:13Z</time>
      </trkpt>
      <trkpt lat="50.16144" lon="4.25141">
        <ele>261</ele>
        <time>2024-12-30T14:44:20Z</time>
      </trkpt>
      <trkpt lat="50.16152" lon="4.25132">
        <ele>261.1</ele>
        <time>2024-12-30T14:44:27Z</time>
      </trkpt>
      <trkpt lat="50.16158" lon="4.25121">
        <ele>261.3</ele>
        <time>2024-12-30T14:44:34Z</time>
      </trkpt>
      <trkpt lat="50.16165" lon="4.25111">
        <ele>261.4</ele>
        <time>2024-12-30T14:44:41Z</time>
      </trkpt>
      <trkpt lat="50.16172" lon="4.25101">
        <ele>261.5</ele>
        <time>2024-12-30T14:44:48Z</time>
      </trkpt>
      <trkpt lat="50.16179" lon="4.25091">
        <ele>261.6</ele>
        <time>2024-12-30T14:44:55Z</time>
      </trkpt>
      <trkpt lat="50.16186" lon="4.25081">
        <ele>261.7</ele>
        <time>2024-12-30T14:45:02Z</time>
      </trkpt>
      <trkpt lat="50.16194" lon="4.25072">
        <ele>261.7</ele>
        <time>2024-12-30T14:45:09Z</time>
      </trkpt>
      <trkpt lat="50.16202" lon="4.25063">
        <ele>261.7</ele>
        <time>2024-12-30T14:45:16Z</time>
      </trkpt>
      <trkpt lat="50.1621" lon="4.25053">
        <ele>261.8</ele>
        <time>2024-12-30T14:45:24Z</time>
      </trkpt>
      <trkpt lat="50.16217" lon="4.25043">
        <ele>261.8</ele>
        <time>2024-12-30T14:45:31Z</time>
      </trkpt>
      <trkpt lat="50.16225" lon="4.25033">
        <ele>261.7</ele>
        <time>2024-12-30T14:45:38Z</time>
      </trkpt>
      <trkpt lat="50.16234" lon="4.25024">
        <ele>261.7</ele>
        <time>2024-12-30T14:45:45Z</time>
      </trkpt>
      <trkpt lat="50.16241" lon="4.25015">
        <ele>261.6</ele>
        <time>2024-12-30T14:45:52Z</time>
      </trkpt>
      <trkpt lat="50.16248" lon="4.25004">
        <ele>261.5</ele>
        <time>2024-12-30T14:46:00Z</time>
      </trkpt>
      <trkpt lat="50.16254" lon="4.24993">
        <ele>261.5</ele>
        <time>2024-12-30T14:46:07Z</time>
      </trkpt>
      <trkpt lat="50.16261" lon="4.24983">
        <ele>261.5</ele>
        <time>2024-12-30T14:46:17Z</time>
      </trkpt>
      <trkpt lat="50.16268" lon="4.24973">
        <ele>261.5</ele>
        <time>2024-12-30T14:46:24Z</time>
      </trkpt>
      <trkpt lat="50.16276" lon="4.24963">
        <ele>261.5</ele>
        <time>2024-12-30T14:46:31Z</time>
      </trkpt>
      <trkpt lat="50.16283" lon="4.24953">
        <ele>261.5</ele>
        <time>2024-12-30T14:46:38Z</time>
      </trkpt>
      <trkpt lat="50.1629" lon="4.24943">
        <ele>261.5</ele>
        <time>2024-12-30T14:46:45Z</time>
      </trkpt>
      <trkpt lat="50.16298" lon="4.24934">
        <ele>261.5</ele>
        <time>2024-12-30T14:46:52Z</time>
      </trkpt>
      <trkpt lat="50.16305" lon="4.24925">
        <ele>261.5</ele>
        <time>2024-12-30T14:46:59Z</time>
      </trkpt>
      <trkpt lat="50.16312" lon="4.24916">
        <ele>261.4</ele>
        <time>2024-12-30T14:47:06Z</time>
      </trkpt>
      <trkpt lat="50.16321" lon="4.24906">
        <ele>261.4</ele>
        <time>2024-12-30T14:47:14Z</time>
      </trkpt>
      <trkpt lat="50.16327" lon="4.24897">
        <ele>261.3</ele>
        <time>2024-12-30T14:47:21Z</time>
      </trkpt>
      <trkpt lat="50.16335" lon="4.24887">
        <ele>261.2</ele>
        <time>2024-12-30T14:47:28Z</time>
      </trkpt>
      <trkpt lat="50.16342" lon="4.24877">
        <ele>261.2</ele>
        <time>2024-12-30T14:47:36Z</time>
      </trkpt>
      <trkpt lat="50.16349" lon="4.24868">
        <ele>261.1</ele>
        <time>2024-12-30T14:47:43Z</time>
      </trkpt>
      <trkpt lat="50.16357" lon="4.24857">
        <ele>261.1</ele>
        <time>2024-12-30T14:47:51Z</time>
      </trkpt>
      <trkpt lat="50.16364" lon="4.24846">
        <ele>261</ele>
        <time>2024-12-30T14:47:59Z</time>
      </trkpt>
      <trkpt lat="50.1637" lon="4.24834">
        <ele>261</ele>
        <time>2024-12-30T14:48:07Z</time>
      </trkpt>
      <trkpt lat="50.16377" lon="4.24823">
        <ele>260.9</ele>
        <time>2024-12-30T14:48:15Z</time>
      </trkpt>
      <trkpt lat="50.16384" lon="4.24814">
        <ele>260.8</ele>
        <time>2024-12-30T14:48:22Z</time>
      </trkpt>
      <trkpt lat="50.16391" lon="4.24805">
        <ele>260.8</ele>
        <time>2024-12-30T14:48:29Z</time>
      </trkpt>
      <trkpt lat="50.16398" lon="4.24796">
        <ele>260.7</ele>
        <time>2024-12-30T14:48:36Z</time>
      </trkpt>
      <trkpt lat="50.16405" lon="4.24787">
        <ele>260.6</ele>
        <time>2024-12-30T14:48:43Z</time>
      </trkpt>
      <trkpt lat="50.16413" lon="4.24778">
        <ele>260.6</ele>
        <time>2024-12-30T14:48:50Z</time>
      </trkpt>
      <trkpt lat="50.1642" lon="4.24767">
        <ele>260.5</ele>
        <time>2024-12-30T14:48:58Z</time>
      </trkpt>
      <trkpt lat="50.16427" lon="4.24759">
        <ele>260.5</ele>
        <time>2024-12-30T14:49:05Z</time>
      </trkpt>
      <trkpt lat="50.16436" lon="4.2475">
        <ele>260.4</ele>
        <time>2024-12-30T14:49:12Z</time>
      </trkpt>
      <trkpt lat="50.16443" lon="4.24741">
        <ele>260.4</ele>
        <time>2024-12-30T14:49:19Z</time>
      </trkpt>
      <trkpt lat="50.1645" lon="4.24732">
        <ele>260.4</ele>
        <time>2024-12-30T14:49:26Z</time>
      </trkpt>
      <trkpt lat="50.16457" lon="4.24723">
        <ele>260.3</ele>
        <time>2024-12-30T14:49:33Z</time>
      </trkpt>
      <trkpt lat="50.16464" lon="4.24713">
        <ele>260.2</ele>
        <time>2024-12-30T14:49:40Z</time>
      </trkpt>
      <trkpt lat="50.16472" lon="4.24704">
        <ele>260.2</ele>
        <time>2024-12-30T14:49:48Z</time>
      </trkpt>
      <trkpt lat="50.16479" lon="4.24695">
        <ele>260.1</ele>
        <time>2024-12-30T14:49:56Z</time>
      </trkpt>
      <trkpt lat="50.16486" lon="4.24685">
        <ele>260.1</ele>
        <time>2024-12-30T14:50:03Z</time>
      </trkpt>
      <trkpt lat="50.16493" lon="4.24674">
        <ele>260</ele>
        <time>2024-12-30T14:50:10Z</time>
      </trkpt>
      <trkpt lat="50.165" lon="4.24665">
        <ele>260</ele>
        <time>2024-12-30T14:50:17Z</time>
      </trkpt>
      <trkpt lat="50.16507" lon="4.24655">
        <ele>260</ele>
        <time>2024-12-30T14:50:24Z</time>
      </trkpt>
      <trkpt lat="50.16516" lon="4.24646">
        <ele>259.9</ele>
        <time>2024-12-30T14:50:32Z</time>
      </trkpt>
      <trkpt lat="50.16523" lon="4.24636">
        <ele>259.9</ele>
        <time>2024-12-30T14:50:39Z</time>
      </trkpt>
      <trkpt lat="50.16529" lon="4.24625">
        <ele>259.9</ele>
        <time>2024-12-30T14:50:47Z</time>
      </trkpt>
      <trkpt lat="50.16537" lon="4.24616">
        <ele>259.8</ele>
        <time>2024-12-30T14:50:54Z</time>
      </trkpt>
      <trkpt lat="50.16545" lon="4.24607">
        <ele>259.8</ele>
        <time>2024-12-30T14:51:00Z</time>
      </trkpt>
      <trkpt lat="50.16552" lon="4.24598">
        <ele>259.7</ele>
        <time>2024-12-30T14:51:06Z</time>
      </trkpt>
      <trkpt lat="50.16558" lon="4.24588">
        <ele>259.7</ele>
        <time>2024-12-30T14:51:13Z</time>
      </trkpt>
      <trkpt lat="50.16565" lon="4.24578">
        <ele>259.6</ele>
        <time>2024-12-30T14:51:20Z</time>
      </trkpt>
      <trkpt lat="50.16572" lon="4.24568">
        <ele>259.6</ele>
        <time>2024-12-30T14:51:28Z</time>
      </trkpt>
      <trkpt lat="50.16579" lon="4.24557">
        <ele>259.6</ele>
        <time>2024-12-30T14:51:36Z</time>
      </trkpt>
      <trkpt lat="50.16586" lon="4.24546">
        <ele>259.5</ele>
        <time>2024-12-30T14:51:43Z</time>
      </trkpt>
      <trkpt lat="50.16594" lon="4.24537">
        <ele>259.6</ele>
        <time>2024-12-30T14:51:49Z</time>
      </trkpt>
      <trkpt lat="50.16601" lon="4.24528">
        <ele>259.6</ele>
        <time>2024-12-30T14:51:56Z</time>
      </trkpt>
      <trkpt lat="50.16608" lon="4.24518">
        <ele>259.7</ele>
        <time>2024-12-30T14:52:03Z</time>
      </trkpt>
      <trkpt lat="50.16614" lon="4.24507">
        <ele>259.8</ele>
        <time>2024-12-30T14:52:11Z</time>
      </trkpt>
      <trkpt lat="50.16622" lon="4.24498">
        <ele>260</ele>
        <time>2024-12-30T14:52:18Z</time>
      </trkpt>
      <trkpt lat="50.1663" lon="4.24488">
        <ele>260.3</ele>
        <time>2024-12-30T14:52:26Z</time>
      </trkpt>
      <trkpt lat="50.16638" lon="4.24479">
        <ele>260.5</ele>
        <time>2024-12-30T14:52:33Z</time>
      </trkpt>
      <trkpt lat="50.16644" lon="4.24468">
        <ele>260.6</ele>
        <time>2024-12-30T14:52:43Z</time>
      </trkpt>
      <trkpt lat="50.16652" lon="4.24459">
        <ele>260.6</ele>
        <time>2024-12-30T14:52:50Z</time>
      </trkpt>
      <trkpt lat="50.16659" lon="4.24447">
        <ele>260.5</ele>
        <time>2024-12-30T14:52:57Z</time>
      </trkpt>
      <trkpt lat="50.16667" lon="4.24438">
        <ele>260.4</ele>
        <time>2024-12-30T14:53:04Z</time>
      </trkpt>
      <trkpt lat="50.16674" lon="4.24428">
        <ele>260.4</ele>
        <time>2024-12-30T14:53:12Z</time>
      </trkpt>
      <trkpt lat="50.16683" lon="4.24419">
        <ele>260.5</ele>
        <time>2024-12-30T14:53:20Z</time>
      </trkpt>
      <trkpt lat="50.1669" lon="4.24411">
        <ele>260.6</ele>
        <time>2024-12-30T14:53:27Z</time>
      </trkpt>
      <trkpt lat="50.16698" lon="4.24402">
        <ele>260.3</ele>
        <time>2024-12-30T14:53:34Z</time>
      </trkpt>
      <trkpt lat="50.16704" lon="4.2439">
        <ele>260.1</ele>
        <time>2024-12-30T14:53:41Z</time>
      </trkpt>
      <trkpt lat="50.1671" lon="4.24378">
        <ele>259.8</ele>
        <time>2024-12-30T14:53:49Z</time>
      </trkpt>
      <trkpt lat="50.16718" lon="4.24369">
        <ele>259.7</ele>
        <time>2024-12-30T14:53:56Z</time>
      </trkpt>
      <trkpt lat="50.16726" lon="4.24359">
        <ele>259.5</ele>
        <time>2024-12-30T14:54:03Z</time>
      </trkpt>
      <trkpt lat="50.16733" lon="4.24349">
        <ele>259.4</ele>
        <time>2024-12-30T14:54:14Z</time>
      </trkpt>
      <trkpt lat="50.16741" lon="4.24341">
        <ele>259.3</ele>
        <time>2024-12-30T14:54:21Z</time>
      </trkpt>
      <trkpt lat="50.16748" lon="4.24332">
        <ele>259.2</ele>
        <time>2024-12-30T14:54:28Z</time>
      </trkpt>
      <trkpt lat="50.16756" lon="4.24322">
        <ele>259.1</ele>
        <time>2024-12-30T14:54:36Z</time>
      </trkpt>
      <trkpt lat="50.16763" lon="4.24311">
        <ele>259.1</ele>
        <time>2024-12-30T14:54:44Z</time>
      </trkpt>
      <trkpt lat="50.1677" lon="4.24301">
        <ele>259</ele>
        <time>2024-12-30T14:54:52Z</time>
      </trkpt>
      <trkpt lat="50.16778" lon="4.24292">
        <ele>259</ele>
        <time>2024-12-30T14:54:59Z</time>
      </trkpt>
      <trkpt lat="50.16784" lon="4.24282">
        <ele>259</ele>
        <time>2024-12-30T14:55:06Z</time>
      </trkpt>
      <trkpt lat="50.16791" lon="4.24272">
        <ele>258.9</ele>
        <time>2024-12-30T14:55:13Z</time>
      </trkpt>
      <trkpt lat="50.16798" lon="4.24263">
        <ele>258.9</ele>
        <time>2024-12-30T14:55:20Z</time>
      </trkpt>
      <trkpt lat="50.16806" lon="4.24253">
        <ele>258.8</ele>
        <time>2024-12-30T14:55:28Z</time>
      </trkpt>
      <trkpt lat="50.16813" lon="4.24242">
        <ele>258.8</ele>
        <time>2024-12-30T14:55:35Z</time>
      </trkpt>
      <trkpt lat="50.16821" lon="4.24233">
        <ele>258.7</ele>
        <time>2024-12-30T14:55:42Z</time>
      </trkpt>
      <trkpt lat="50.16829" lon="4.24224">
        <ele>258.7</ele>
        <time>2024-12-30T14:55:49Z</time>
      </trkpt>
      <trkpt lat="50.16837" lon="4.24218">
        <ele>258.7</ele>
        <time>2024-12-30T14:55:56Z</time>
      </trkpt>
      <trkpt lat="50.16844" lon="4.24207">
        <ele>258.7</ele>
        <time>2024-12-30T14:56:03Z</time>
      </trkpt>
      <trkpt lat="50.16851" lon="4.24197">
        <ele>258.6</ele>
        <time>2024-12-30T14:56:10Z</time>
      </trkpt>
      <trkpt lat="50.16858" lon="4.24186">
        <ele>258.5</ele>
        <time>2024-12-30T14:56:17Z</time>
      </trkpt>
      <trkpt lat="50.16867" lon="4.24177">
        <ele>258.5</ele>
        <time>2024-12-30T14:56:25Z</time>
      </trkpt>
      <trkpt lat="50.16873" lon="4.24166">
        <ele>258.4</ele>
        <time>2024-12-30T14:56:32Z</time>
      </trkpt>
      <trkpt lat="50.16881" lon="4.24158">
        <ele>258.3</ele>
        <time>2024-12-30T14:56:39Z</time>
      </trkpt>
      <trkpt lat="50.16888" lon="4.24148">
        <ele>258.2</ele>
        <time>2024-12-30T14:56:46Z</time>
      </trkpt>
      <trkpt lat="50.16895" lon="4.24139">
        <ele>258.2</ele>
        <time>2024-12-30T14:56:53Z</time>
      </trkpt>
      <trkpt lat="50.16903" lon="4.24128">
        <ele>258.2</ele>
        <time>2024-12-30T14:57:01Z</time>
      </trkpt>
      <trkpt lat="50.1691" lon="4.24118">
        <ele>258.1</ele>
        <time>2024-12-30T14:57:08Z</time>
      </trkpt>
      <trkpt lat="50.16918" lon="4.24108">
        <ele>258.1</ele>
        <time>2024-12-30T14:57:15Z</time>
      </trkpt>
      <trkpt lat="50.16926" lon="4.241">
        <ele>258</ele>
        <time>2024-12-30T14:57:22Z</time>
      </trkpt>
      <trkpt lat="50.16934" lon="4.24091">
        <ele>258</ele>
        <time>2024-12-30T14:57:29Z</time>
      </trkpt>
      <trkpt lat="50.16941" lon="4.2408">
        <ele>257.9</ele>
        <time>2024-12-30T14:57:36Z</time>
      </trkpt>
      <trkpt lat="50.16948" lon="4.2407">
        <ele>257.9</ele>
        <time>2024-12-30T14:57:43Z</time>
      </trkpt>
      <trkpt lat="50.16955" lon="4.24061">
        <ele>257.9</ele>
        <time>2024-12-30T14:57:50Z</time>
      </trkpt>
      <trkpt lat="50.16962" lon="4.24051">
        <ele>257.9</ele>
        <time>2024-12-30T14:57:57Z</time>
      </trkpt>
      <trkpt lat="50.16969" lon="4.24043">
        <ele>257.9</ele>
        <time>2024-12-30T14:58:04Z</time>
      </trkpt>
      <trkpt lat="50.16976" lon="4.24033">
        <ele>258</ele>
        <time>2024-12-30T14:58:11Z</time>
      </trkpt>
      <trkpt lat="50.16983" lon="4.24023">
        <ele>258</ele>
        <time>2024-12-30T14:58:19Z</time>
      </trkpt>
      <trkpt lat="50.1699" lon="4.24012">
        <ele>258</ele>
        <time>2024-12-30T14:58:27Z</time>
      </trkpt>
      <trkpt lat="50.16998" lon="4.24001">
        <ele>258</ele>
        <time>2024-12-30T14:58:35Z</time>
      </trkpt>
      <trkpt lat="50.17005" lon="4.23991">
        <ele>258</ele>
        <time>2024-12-30T14:58:42Z</time>
      </trkpt>
      <trkpt lat="50.17012" lon="4.23981">
        <ele>258.1</ele>
        <time>2024-12-30T14:58:49Z</time>
      </trkpt>
      <trkpt lat="50.17019" lon="4.23972">
        <ele>258.1</ele>
        <time>2024-12-30T14:58:56Z</time>
      </trkpt>
      <trkpt lat="50.17027" lon="4.23962">
        <ele>258.1</ele>
        <time>2024-12-30T14:59:04Z</time>
      </trkpt>
      <trkpt lat="50.17035" lon="4.23951">
        <ele>258.1</ele>
        <time>2024-12-30T14:59:12Z</time>
      </trkpt>
      <trkpt lat="50.17041" lon="4.2394">
        <ele>258</ele>
        <time>2024-12-30T14:59:20Z</time>
      </trkpt>
      <trkpt lat="50.17049" lon="4.23931">
        <ele>258</ele>
        <time>2024-12-30T14:59:28Z</time>
      </trkpt>
      <trkpt lat="50.17056" lon="4.23921">
        <ele>258</ele>
        <time>2024-12-30T14:59:35Z</time>
      </trkpt>
      <trkpt lat="50.17063" lon="4.23913">
        <ele>258</ele>
        <time>2024-12-30T14:59:42Z</time>
      </trkpt>
      <trkpt lat="50.1707" lon="4.23903">
        <ele>258</ele>
        <time>2024-12-30T14:59:49Z</time>
      </trkpt>
      <trkpt lat="50.17078" lon="4.23893">
        <ele>258</ele>
        <time>2024-12-30T14:59:56Z</time>
      </trkpt>
      <trkpt lat="50.17085" lon="4.23883">
        <ele>258.1</ele>
        <time>2024-12-30T15:00:03Z</time>
      </trkpt>
      <trkpt lat="50.17092" lon="4.23873">
        <ele>258.1</ele>
        <time>2024-12-30T15:00:10Z</time>
      </trkpt>
      <trkpt lat="50.17099" lon="4.23864">
        <ele>258.1</ele>
        <time>2024-12-30T15:00:17Z</time>
      </trkpt>
      <trkpt lat="50.17106" lon="4.23854">
        <ele>258.1</ele>
        <time>2024-12-30T15:00:24Z</time>
      </trkpt>
      <trkpt lat="50.17113" lon="4.23844">
        <ele>258.1</ele>
        <time>2024-12-30T15:00:31Z</time>
      </trkpt>
      <trkpt lat="50.17121" lon="4.23834">
        <ele>258.1</ele>
        <time>2024-12-30T15:00:39Z</time>
      </trkpt>
      <trkpt lat="50.17129" lon="4.23824">
        <ele>258</ele>
        <time>2024-12-30T15:00:47Z</time>
      </trkpt>
      <trkpt lat="50.17137" lon="4.23815">
        <ele>258</ele>
        <time>2024-12-30T15:00:54Z</time>
      </trkpt>
      <trkpt lat="50.17144" lon="4.23806">
        <ele>258</ele>
        <time>2024-12-30T15:01:01Z</time>
      </trkpt>
      <trkpt lat="50.17151" lon="4.23797">
        <ele>258</ele>
        <time>2024-12-30T15:01:08Z</time>
      </trkpt>
      <trkpt lat="50.17158" lon="4.23787">
        <ele>258</ele>
        <time>2024-12-30T15:01:15Z</time>
      </trkpt>
      <trkpt lat="50.17165" lon="4.23778">
        <ele>258</ele>
        <time>2024-12-30T15:01:22Z</time>
      </trkpt>
      <trkpt lat="50.17171" lon="4.23766">
        <ele>258.1</ele>
        <time>2024-12-30T15:01:30Z</time>
      </trkpt>
      <trkpt lat="50.17178" lon="4.23758">
        <ele>258.2</ele>
        <time>2024-12-30T15:01:38Z</time>
      </trkpt>
      <trkpt lat="50.17186" lon="4.23748">
        <ele>258.3</ele>
        <time>2024-12-30T15:01:46Z</time>
      </trkpt>
      <trkpt lat="50.17194" lon="4.2374">
        <ele>258.4</ele>
        <time>2024-12-30T15:01:54Z</time>
      </trkpt>
      <trkpt lat="50.17201" lon="4.23729">
        <ele>258.5</ele>
        <time>2024-12-30T15:02:02Z</time>
      </trkpt>
      <trkpt lat="50.17208" lon="4.23719">
        <ele>258.6</ele>
        <time>2024-12-30T15:02:09Z</time>
      </trkpt>
      <trkpt lat="50.17215" lon="4.23709">
        <ele>258.7</ele>
        <time>2024-12-30T15:02:16Z</time>
      </trkpt>
      <trkpt lat="50.17223" lon="4.23701">
        <ele>259</ele>
        <time>2024-12-30T15:02:23Z</time>
      </trkpt>
      <trkpt lat="50.1723" lon="4.23692">
        <ele>259.3</ele>
        <time>2024-12-30T15:02:30Z</time>
      </trkpt>
      <trkpt lat="50.17238" lon="4.23682">
        <ele>259.4</ele>
        <time>2024-12-30T15:02:38Z</time>
      </trkpt>
      <trkpt lat="50.17246" lon="4.23674">
        <ele>259.3</ele>
        <time>2024-12-30T15:02:45Z</time>
      </trkpt>
      <trkpt lat="50.17253" lon="4.23664">
        <ele>259.3</ele>
        <time>2024-12-30T15:02:53Z</time>
      </trkpt>
      <trkpt lat="50.1726" lon="4.23654">
        <ele>259.1</ele>
        <time>2024-12-30T15:03:00Z</time>
      </trkpt>
      <trkpt lat="50.17266" lon="4.23644">
        <ele>258.9</ele>
        <time>2024-12-30T15:03:07Z</time>
      </trkpt>
      <trkpt lat="50.17273" lon="4.23634">
        <ele>258.7</ele>
        <time>2024-12-30T15:03:14Z</time>
      </trkpt>
      <trkpt lat="50.17281" lon="4.23626">
        <ele>258.6</ele>
        <time>2024-12-30T15:03:21Z</time>
      </trkpt>
      <trkpt lat="50.17288" lon="4.23616">
        <ele>258.6</ele>
        <time>2024-12-30T15:03:28Z</time>
      </trkpt>
      <trkpt lat="50.17293" lon="4.23611">
        <ele>258.5</ele>
        <time>2024-12-30T15:03:38Z</time>
      </trkpt>
      <trkpt lat="50.17292" lon="4.23611">
        <ele>258.5</ele>
        <time>2024-12-30T15:03:39Z</time>
      </trkpt>
      <trkpt lat="50.17291" lon="4.2361">
        <ele>258.5</ele>
        <time>2024-12-30T15:03:48Z</time>
      </trkpt>
      <trkpt lat="50.17291" lon="4.2361">
        <ele>258.5</ele>
        <time>2024-12-30T15:03:49Z</time>
      </trkpt>
      <trkpt lat="50.17291" lon="4.2361">
        <ele>258.5</ele>
        <time>2024-12-30T15:03:50Z</time>
      </trkpt>
      <trkpt lat="50.17291" lon="4.2361">
        <ele>258.5</ele>
        <time>2024-12-30T15:03:51Z</time>
      </trkpt>
      <trkpt lat="50.17291" lon="4.23609">
        <ele>258.5</ele>
        <time>2024-12-30T15:04:21Z</time>
      </trkpt>
      <trkpt lat="50.17293" lon="4.23608">
        <ele>258.5</ele>
        <time>2024-12-30T15:04:22Z</time>
      </trkpt>
      <trkpt lat="50.173" lon="4.23598">
        <ele>258.4</ele>
        <time>2024-12-30T15:04:29Z</time>
      </trkpt>
      <trkpt lat="50.17307" lon="4.23588">
        <ele>258.4</ele>
        <time>2024-12-30T15:04:36Z</time>
      </trkpt>
      <trkpt lat="50.17315" lon="4.23579">
        <ele>258.3</ele>
        <time>2024-12-30T15:04:43Z</time>
      </trkpt>
      <trkpt lat="50.17322" lon="4.2357">
        <ele>258.2</ele>
        <time>2024-12-30T15:04:50Z</time>
      </trkpt>
      <trkpt lat="50.1733" lon="4.23563">
        <ele>258</ele>
        <time>2024-12-30T15:04:57Z</time>
      </trkpt>
      <trkpt lat="50.17337" lon="4.23553">
        <ele>257.8</ele>
        <time>2024-12-30T15:05:04Z</time>
      </trkpt>
      <trkpt lat="50.17345" lon="4.23544">
        <ele>257.6</ele>
        <time>2024-12-30T15:05:11Z</time>
      </trkpt>
      <trkpt lat="50.17353" lon="4.23535">
        <ele>257.4</ele>
        <time>2024-12-30T15:05:18Z</time>
      </trkpt>
      <trkpt lat="50.1736" lon="4.23524">
        <ele>257.3</ele>
        <time>2024-12-30T15:05:25Z</time>
      </trkpt>
      <trkpt lat="50.17366" lon="4.23514">
        <ele>257.2</ele>
        <time>2024-12-30T15:05:32Z</time>
      </trkpt>
      <trkpt lat="50.17373" lon="4.23503">
        <ele>257</ele>
        <time>2024-12-30T15:05:39Z</time>
      </trkpt>
      <trkpt lat="50.1738" lon="4.23492">
        <ele>256.8</ele>
        <time>2024-12-30T15:05:47Z</time>
      </trkpt>
      <trkpt lat="50.17388" lon="4.23482">
        <ele>256.7</ele>
        <time>2024-12-30T15:05:54Z</time>
      </trkpt>
      <trkpt lat="50.17396" lon="4.23471">
        <ele>256.5</ele>
        <time>2024-12-30T15:06:01Z</time>
      </trkpt>
      <trkpt lat="50.17404" lon="4.23462">
        <ele>256.4</ele>
        <time>2024-12-30T15:06:08Z</time>
      </trkpt>
      <trkpt lat="50.17411" lon="4.23452">
        <ele>256.3</ele>
        <time>2024-12-30T15:06:15Z</time>
      </trkpt>
      <trkpt lat="50.17419" lon="4.23442">
        <ele>256.3</ele>
        <time>2024-12-30T15:06:22Z</time>
      </trkpt>
      <trkpt lat="50.17425" lon="4.23432">
        <ele>256.1</ele>
        <time>2024-12-30T15:06:29Z</time>
      </trkpt>
      <trkpt lat="50.17432" lon="4.23422">
        <ele>256</ele>
        <time>2024-12-30T15:06:36Z</time>
      </trkpt>
      <trkpt lat="50.17439" lon="4.23412">
        <ele>255.8</ele>
        <time>2024-12-30T15:06:44Z</time>
      </trkpt>
      <trkpt lat="50.17446" lon="4.23403">
        <ele>255.7</ele>
        <time>2024-12-30T15:06:51Z</time>
      </trkpt>
      <trkpt lat="50.17453" lon="4.23394">
        <ele>255.6</ele>
        <time>2024-12-30T15:06:58Z</time>
      </trkpt>
      <trkpt lat="50.17461" lon="4.23386">
        <ele>255.4</ele>
        <time>2024-12-30T15:07:05Z</time>
      </trkpt>
      <trkpt lat="50.17469" lon="4.23376">
        <ele>255.2</ele>
        <time>2024-12-30T15:07:12Z</time>
      </trkpt>
      <trkpt lat="50.17476" lon="4.23366">
        <ele>255</ele>
        <time>2024-12-30T15:07:20Z</time>
      </trkpt>
      <trkpt lat="50.17484" lon="4.23355">
        <ele>254.8</ele>
        <time>2024-12-30T15:07:28Z</time>
      </trkpt>
      <trkpt lat="50.17491" lon="4.23346">
        <ele>254.7</ele>
        <time>2024-12-30T15:07:35Z</time>
      </trkpt>
      <trkpt lat="50.17498" lon="4.23335">
        <ele>254.5</ele>
        <time>2024-12-30T15:07:43Z</time>
      </trkpt>
      <trkpt lat="50.17505" lon="4.23326">
        <ele>254.3</ele>
        <time>2024-12-30T15:07:50Z</time>
      </trkpt>
      <trkpt lat="50.17512" lon="4.23315">
        <ele>254.2</ele>
        <time>2024-12-30T15:07:57Z</time>
      </trkpt>
      <trkpt lat="50.17519" lon="4.23305">
        <ele>254.1</ele>
        <time>2024-12-30T15:08:04Z</time>
      </trkpt>
      <trkpt lat="50.17526" lon="4.23296">
        <ele>254</ele>
        <time>2024-12-30T15:08:11Z</time>
      </trkpt>
      <trkpt lat="50.17533" lon="4.23287">
        <ele>253.9</ele>
        <time>2024-12-30T15:08:18Z</time>
      </trkpt>
      <trkpt lat="50.1754" lon="4.23278">
        <ele>253.8</ele>
        <time>2024-12-30T15:08:25Z</time>
      </trkpt>
      <trkpt lat="50.17548" lon="4.23268">
        <ele>253.7</ele>
        <time>2024-12-30T15:08:32Z</time>
      </trkpt>
      <trkpt lat="50.17555" lon="4.23259">
        <ele>253.6</ele>
        <time>2024-12-30T15:08:39Z</time>
      </trkpt>
      <trkpt lat="50.17562" lon="4.23249">
        <ele>253.6</ele>
        <time>2024-12-30T15:08:46Z</time>
      </trkpt>
      <trkpt lat="50.17569" lon="4.23239">
        <ele>253.5</ele>
        <time>2024-12-30T15:08:53Z</time>
      </trkpt>
      <trkpt lat="50.17576" lon="4.23229">
        <ele>253.5</ele>
        <time>2024-12-30T15:09:00Z</time>
      </trkpt>
      <trkpt lat="50.17583" lon="4.2322">
        <ele>253.4</ele>
        <time>2024-12-30T15:09:07Z</time>
      </trkpt>
      <trkpt lat="50.1759" lon="4.2321">
        <ele>253.4</ele>
        <time>2024-12-30T15:09:14Z</time>
      </trkpt>
      <trkpt lat="50.17598" lon="4.232">
        <ele>253.3</ele>
        <time>2024-12-30T15:09:22Z</time>
      </trkpt>
      <trkpt lat="50.17605" lon="4.23188">
        <ele>253.2</ele>
        <time>2024-12-30T15:09:30Z</time>
      </trkpt>
      <trkpt lat="50.17613" lon="4.23178">
        <ele>253.2</ele>
        <time>2024-12-30T15:09:37Z</time>
      </trkpt>
      <trkpt lat="50.1762" lon="4.23169">
        <ele>253.1</ele>
        <time>2024-12-30T15:09:44Z</time>
      </trkpt>
      <trkpt lat="50.17627" lon="4.23158">
        <ele>253</ele>
        <time>2024-12-30T15:09:52Z</time>
      </trkpt>
      <trkpt lat="50.17635" lon="4.23149">
        <ele>252.9</ele>
        <time>2024-12-30T15:09:59Z</time>
      </trkpt>
      <trkpt lat="50.17643" lon="4.2314">
        <ele>252.8</ele>
        <time>2024-12-30T15:10:06Z</time>
      </trkpt>
      <trkpt lat="50.1765" lon="4.2313">
        <ele>252.7</ele>
        <time>2024-12-30T15:10:13Z</time>
      </trkpt>
      <trkpt lat="50.17657" lon="4.2312">
        <ele>252.7</ele>
        <time>2024-12-30T15:10:21Z</time>
      </trkpt>
      <trkpt lat="50.17664" lon="4.23109">
        <ele>252.7</ele>
        <time>2024-12-30T15:10:28Z</time>
      </trkpt>
      <trkpt lat="50.17672" lon="4.23101">
        <ele>252.7</ele>
        <time>2024-12-30T15:10:35Z</time>
      </trkpt>
      <trkpt lat="50.1768" lon="4.23092">
        <ele>252.6</ele>
        <time>2024-12-30T15:10:42Z</time>
      </trkpt>
      <trkpt lat="50.17688" lon="4.23082">
        <ele>252.5</ele>
        <time>2024-12-30T15:10:49Z</time>
      </trkpt>
      <trkpt lat="50.17695" lon="4.23072">
        <ele>252.5</ele>
        <time>2024-12-30T15:10:56Z</time>
      </trkpt>
      <trkpt lat="50.17702" lon="4.23061">
        <ele>252.5</ele>
        <time>2024-12-30T15:11:04Z</time>
      </trkpt>
      <trkpt lat="50.17709" lon="4.23049">
        <ele>252.5</ele>
        <time>2024-12-30T15:11:12Z</time>
      </trkpt>
      <trkpt lat="50.17717" lon="4.23039">
        <ele>252.5</ele>
        <time>2024-12-30T15:11:20Z</time>
      </trkpt>
      <trkpt lat="50.17724" lon="4.23028">
        <ele>252.5</ele>
        <time>2024-12-30T15:11:28Z</time>
      </trkpt>
      <trkpt lat="50.17732" lon="4.23019">
        <ele>252.4</ele>
        <time>2024-12-30T15:11:34Z</time>
      </trkpt>
      <trkpt lat="50.17739" lon="4.23009">
        <ele>252.4</ele>
        <time>2024-12-30T15:11:41Z</time>
      </trkpt>
      <trkpt lat="50.17746" lon="4.23001">
        <ele>252.4</ele>
        <time>2024-12-30T15:11:47Z</time>
      </trkpt>
      <trkpt lat="50.17755" lon="4.22992">
        <ele>252.4</ele>
        <time>2024-12-30T15:11:54Z</time>
      </trkpt>
      <trkpt lat="50.17762" lon="4.22981">
        <ele>252.4</ele>
        <time>2024-12-30T15:12:02Z</time>
      </trkpt>
      <trkpt lat="50.17771" lon="4.22976">
        <ele>252.3</ele>
        <time>2024-12-30T15:12:09Z</time>
      </trkpt>
      <trkpt lat="50.17781" lon="4.22975">
        <ele>252.2</ele>
        <time>2024-12-30T15:12:17Z</time>
      </trkpt>
      <trkpt lat="50.17789" lon="4.22968">
        <ele>252.1</ele>
        <time>2024-12-30T15:12:24Z</time>
      </trkpt>
      <trkpt lat="50.17796" lon="4.22958">
        <ele>252</ele>
        <time>2024-12-30T15:12:31Z</time>
      </trkpt>
      <trkpt lat="50.17803" lon="4.22947">
        <ele>252</ele>
        <time>2024-12-30T15:12:38Z</time>
      </trkpt>
      <trkpt lat="50.17809" lon="4.22937">
        <ele>252</ele>
        <time>2024-12-30T15:12:45Z</time>
      </trkpt>
      <trkpt lat="50.17817" lon="4.22927">
        <ele>252.1</ele>
        <time>2024-12-30T15:12:52Z</time>
      </trkpt>
      <trkpt lat="50.17823" lon="4.22917">
        <ele>252.1</ele>
        <time>2024-12-30T15:12:59Z</time>
      </trkpt>
      <trkpt lat="50.1783" lon="4.22905">
        <ele>252.2</ele>
        <time>2024-12-30T15:13:06Z</time>
      </trkpt>
      <trkpt lat="50.17838" lon="4.22896">
        <ele>252.2</ele>
        <time>2024-12-30T15:13:14Z</time>
      </trkpt>
      <trkpt lat="50.17844" lon="4.22885">
        <ele>252.2</ele>
        <time>2024-12-30T15:13:21Z</time>
      </trkpt>
      <trkpt lat="50.17851" lon="4.22874">
        <ele>252.2</ele>
        <time>2024-12-30T15:13:28Z</time>
      </trkpt>
      <trkpt lat="50.17858" lon="4.22863">
        <ele>252.2</ele>
        <time>2024-12-30T15:13:35Z</time>
      </trkpt>
      <trkpt lat="50.17865" lon="4.22854">
        <ele>252.2</ele>
        <time>2024-12-30T15:13:42Z</time>
      </trkpt>
      <trkpt lat="50.17873" lon="4.22845">
        <ele>252.3</ele>
        <time>2024-12-30T15:13:49Z</time>
      </trkpt>
      <trkpt lat="50.1788" lon="4.22835">
        <ele>252.3</ele>
        <time>2024-12-30T15:13:56Z</time>
      </trkpt>
      <trkpt lat="50.17887" lon="4.22825">
        <ele>252.4</ele>
        <time>2024-12-30T15:14:03Z</time>
      </trkpt>
      <trkpt lat="50.17896" lon="4.22817">
        <ele>252.5</ele>
        <time>2024-12-30T15:14:10Z</time>
      </trkpt>
      <trkpt lat="50.17903" lon="4.22809">
        <ele>252.6</ele>
        <time>2024-12-30T15:14:16Z</time>
      </trkpt>
      <trkpt lat="50.1791" lon="4.22799">
        <ele>252.7</ele>
        <time>2024-12-30T15:14:22Z</time>
      </trkpt>
      <trkpt lat="50.17917" lon="4.22788">
        <ele>252.8</ele>
        <time>2024-12-30T15:14:29Z</time>
      </trkpt>
      <trkpt lat="50.17923" lon="4.22778">
        <ele>253</ele>
        <time>2024-12-30T15:14:36Z</time>
      </trkpt>
      <trkpt lat="50.17931" lon="4.22767">
        <ele>253.4</ele>
        <time>2024-12-30T15:14:44Z</time>
      </trkpt>
      <trkpt lat="50.17936" lon="4.22756">
        <ele>253.6</ele>
        <time>2024-12-30T15:14:53Z</time>
      </trkpt>
      <trkpt lat="50.1794" lon="4.22743">
        <ele>253.8</ele>
        <time>2024-12-30T15:15:01Z</time>
      </trkpt>
      <trkpt lat="50.17938" lon="4.22729">
        <ele>253.8</ele>
        <time>2024-12-30T15:15:09Z</time>
      </trkpt>
      <trkpt lat="50.1793" lon="4.2272">
        <ele>253.7</ele>
        <time>2024-12-30T15:15:18Z</time>
      </trkpt>
      <trkpt lat="50.1792" lon="4.22714">
        <ele>253.7</ele>
        <time>2024-12-30T15:15:28Z</time>
      </trkpt>
      <trkpt lat="50.1791" lon="4.2271">
        <ele>253.5</ele>
        <time>2024-12-30T15:15:34Z</time>
      </trkpt>
      <trkpt lat="50.179" lon="4.227">
        <ele>253.4</ele>
        <time>2024-12-30T15:15:42Z</time>
      </trkpt>
      <trkpt lat="50.17899" lon="4.22695">
        <ele>253.3</ele>
        <time>2024-12-30T15:15:49Z</time>
      </trkpt>
      <trkpt lat="50.17898" lon="4.2269">
        <ele>253.3</ele>
        <time>2024-12-30T15:15:51Z</time>
      </trkpt>
      <trkpt lat="50.17897" lon="4.22686">
        <ele>253.2</ele>
        <time>2024-12-30T15:15:51Z</time>
      </trkpt>
      <trkpt lat="50.17897" lon="4.22686">
        <ele>253.2</ele>
        <time>2024-12-30T15:15:51Z</time>
      </trkpt>
    </trkseg>
  </trk>
</gpx>